sensor_id;sensor_type;location;lat;lon;timestamp;P1;durP1;ratioP1;P2;durP2;ratioP2
59159;SDS011;44941;45.058;20.076;2024-03-06T00:00:19;15.65;;;8.93;;
59159;SDS011;44941;45.058;20.076;2024-03-06T00:02:45;13.35;;;8.70;;
59159;SDS011;44941;45.058;20.076;2024-03-06T00:05:12;15.25;;;9.88;;
59159;SDS011;44941;45.058;20.076;2024-03-06T00:07:38;18.23;;;11.30;;
59159;SDS011;44941;45.058;20.076;2024-03-06T00:10:04;16.92;;;10.52;;
59159;SDS011;44941;45.058;20.076;2024-03-06T00:12:30;15.73;;;10.07;;
59159;SDS011;44941;45.058;20.076;2024-03-06T00:15:15;15.90;;;10.48;;
59159;SDS011;44941;45.058;20.076;2024-03-06T00:17:41;17.60;;;10.13;;
59159;SDS011;44941;45.058;20.076;2024-03-06T00:20:07;13.70;;;10.43;;
59159;SDS011;44941;45.058;20.076;2024-03-06T00:22:35;14.82;;;9.90;;
59159;SDS011;44941;45.058;20.076;2024-03-06T00:25:01;17.08;;;9.88;;
59159;SDS011;44941;45.058;20.076;2024-03-06T00:27:28;18.08;;;10.70;;
59159;SDS011;44941;45.058;20.076;2024-03-06T00:29:54;16.95;;;10.27;;
59159;SDS011;44941;45.058;20.076;2024-03-06T00:32:20;14.93;;;9.85;;
59159;SDS011;44941;45.058;20.076;2024-03-06T00:37:14;12.77;;;9.48;;
59159;SDS011;44941;45.058;20.076;2024-03-06T00:39:40;18.55;;;10.45;;
59159;SDS011;44941;45.058;20.076;2024-03-06T00:42:06;14.23;;;9.82;;
59159;SDS011;44941;45.058;20.076;2024-03-06T00:44:36;17.55;;;11.85;;
59159;SDS011;44941;45.058;20.076;2024-03-06T00:47:03;19.85;;;13.05;;
59159;SDS011;44941;45.058;20.076;2024-03-06T00:49:29;23.27;;;14.65;;
59159;SDS011;44941;45.058;20.076;2024-03-06T00:51:55;23.83;;;15.55;;
59159;SDS011;44941;45.058;20.076;2024-03-06T00:54:21;25.38;;;14.90;;
59159;SDS011;44941;45.058;20.076;2024-03-06T00:56:47;25.38;;;16.13;;
59159;SDS011;44941;45.058;20.076;2024-03-06T00:59:13;24.95;;;16.02;;
59159;SDS011;44941;45.058;20.076;2024-03-06T01:01:39;26.83;;;16.77;;
59159;SDS011;44941;45.058;20.076;2024-03-06T01:04:06;26.05;;;17.35;;
59159;SDS011;44941;45.058;20.076;2024-03-06T01:06:32;25.15;;;16.77;;
59159;SDS011;44941;45.058;20.076;2024-03-06T01:08:58;24.83;;;17.58;;
59159;SDS011;44941;45.058;20.076;2024-03-06T01:11:24;26.33;;;18.33;;
59159;SDS011;44941;45.058;20.076;2024-03-06T01:13:51;27.42;;;18.13;;
59159;SDS011;44941;45.058;20.076;2024-03-06T01:19:02;33.03;;;20.45;;
59159;SDS011;44941;45.058;20.076;2024-03-06T01:21:28;37.30;;;20.75;;
59159;SDS011;44941;45.058;20.076;2024-03-06T01:23:54;31.25;;;20.35;;
59159;SDS011;44941;45.058;20.076;2024-03-06T01:26:20;31.52;;;20.67;;
59159;SDS011;44941;45.058;20.076;2024-03-06T01:28:46;29.88;;;19.73;;
59159;SDS011;44941;45.058;20.076;2024-03-06T01:31:12;31.05;;;19.92;;
59159;SDS011;44941;45.058;20.076;2024-03-06T01:33:38;29.50;;;19.08;;
59159;SDS011;44941;45.058;20.076;2024-03-06T01:36:07;27.65;;;19.35;;
59159;SDS011;44941;45.058;20.076;2024-03-06T01:38:39;25.95;;;19.58;;
59159;SDS011;44941;45.058;20.076;2024-03-06T01:41:06;32.60;;;22.10;;
59159;SDS011;44941;45.058;20.076;2024-03-06T01:43:36;35.05;;;22.52;;
59159;SDS011;44941;45.058;20.076;2024-03-06T01:46:21;33.78;;;23.02;;
59159;SDS011;44941;45.058;20.076;2024-03-06T01:48:47;33.83;;;22.00;;
59159;SDS011;44941;45.058;20.076;2024-03-06T01:51:13;29.95;;;21.17;;
59159;SDS011;44941;45.058;20.076;2024-03-06T01:53:39;30.55;;;21.08;;
59159;SDS011;44941;45.058;20.076;2024-03-06T01:56:05;28.77;;;19.30;;
59159;SDS011;44941;45.058;20.076;2024-03-06T01:58:33;25.48;;;17.08;;
59159;SDS011;44941;45.058;20.076;2024-03-06T02:01:12;23.67;;;16.38;;
59159;SDS011;44941;45.058;20.076;2024-03-06T02:06:04;23.02;;;14.07;;
59159;SDS011;44941;45.058;20.076;2024-03-06T02:08:33;24.45;;;14.77;;
59159;SDS011;44941;45.058;20.076;2024-03-06T02:10:59;19.23;;;13.45;;
59159;SDS011;44941;45.058;20.076;2024-03-06T02:13:27;19.30;;;14.00;;
59159;SDS011;44941;45.058;20.076;2024-03-06T02:18:54;22.33;;;14.07;;
59159;SDS011;44941;45.058;20.076;2024-03-06T02:21:21;21.27;;;14.02;;
59159;SDS011;44941;45.058;20.076;2024-03-06T02:23:48;19.45;;;13.98;;
59159;SDS011;44941;45.058;20.076;2024-03-06T02:26:16;17.73;;;13.70;;
59159;SDS011;44941;45.058;20.076;2024-03-06T02:28:51;20.65;;;14.55;;
59159;SDS011;44941;45.058;20.076;2024-03-06T02:31:18;22.80;;;14.27;;
59159;SDS011;44941;45.058;20.076;2024-03-06T02:33:45;23.00;;;14.60;;
59159;SDS011;44941;45.058;20.076;2024-03-06T02:36:12;22.63;;;15.38;;
59159;SDS011;44941;45.058;20.076;2024-03-06T02:38:41;22.13;;;15.55;;
59159;SDS011;44941;45.058;20.076;2024-03-06T02:41:07;24.17;;;14.85;;
59159;SDS011;44941;45.058;20.076;2024-03-06T02:43:33;21.05;;;14.98;;
59159;SDS011;44941;45.058;20.076;2024-03-06T02:46:08;23.27;;;14.75;;
59159;SDS011;44941;45.058;20.076;2024-03-06T02:48:35;18.38;;;13.90;;
59159;SDS011;44941;45.058;20.076;2024-03-06T02:51:01;19.35;;;13.77;;
59159;SDS011;44941;45.058;20.076;2024-03-06T02:53:27;19.55;;;14.27;;
59159;SDS011;44941;45.058;20.076;2024-03-06T02:55:53;18.65;;;12.70;;
59159;SDS011;44941;45.058;20.076;2024-03-06T02:58:19;20.35;;;13.77;;
59159;SDS011;44941;45.058;20.076;2024-03-06T03:00:46;20.15;;;14.05;;
59159;SDS011;44941;45.058;20.076;2024-03-06T03:03:12;20.35;;;13.90;;
59159;SDS011;44941;45.058;20.076;2024-03-06T03:05:39;19.35;;;14.18;;
59159;SDS011;44941;45.058;20.076;2024-03-06T03:08:05;18.90;;;13.70;;
59159;SDS011;44941;45.058;20.076;2024-03-06T03:10:32;18.35;;;13.45;;
59159;SDS011;44941;45.058;20.076;2024-03-06T03:12:59;17.90;;;12.63;;
59159;SDS011;44941;45.058;20.076;2024-03-06T03:15:25;19.23;;;12.10;;
59159;SDS011;44941;45.058;20.076;2024-03-06T03:17:51;20.35;;;13.02;;
59159;SDS011;44941;45.058;20.076;2024-03-06T03:20:18;18.98;;;13.82;;
59159;SDS011;44941;45.058;20.076;2024-03-06T03:22:44;18.70;;;13.02;;
59159;SDS011;44941;45.058;20.076;2024-03-06T03:25:10;20.30;;;13.38;;
59159;SDS011;44941;45.058;20.076;2024-03-06T03:27:40;21.08;;;14.13;;
59159;SDS011;44941;45.058;20.076;2024-03-06T03:30:09;21.02;;;14.55;;
59159;SDS011;44941;45.058;20.076;2024-03-06T03:32:36;19.63;;;12.80;;
59159;SDS011;44941;45.058;20.076;2024-03-06T03:35:04;19.27;;;14.15;;
59159;SDS011;44941;45.058;20.076;2024-03-06T03:37:30;18.70;;;14.48;;
59159;SDS011;44941;45.058;20.076;2024-03-06T03:39:56;21.05;;;13.52;;
59159;SDS011;44941;45.058;20.076;2024-03-06T03:42:22;20.33;;;14.05;;
59159;SDS011;44941;45.058;20.076;2024-03-06T03:44:48;19.88;;;13.90;;
59159;SDS011;44941;45.058;20.076;2024-03-06T03:47:24;22.08;;;14.02;;
59159;SDS011;44941;45.058;20.076;2024-03-06T03:49:50;24.38;;;14.68;;
59159;SDS011;44941;45.058;20.076;2024-03-06T03:52:16;24.77;;;15.38;;
59159;SDS011;44941;45.058;20.076;2024-03-06T03:54:42;22.92;;;14.55;;
59159;SDS011;44941;45.058;20.076;2024-03-06T03:57:09;23.15;;;14.93;;
59159;SDS011;44941;45.058;20.076;2024-03-06T03:59:35;21.33;;;14.45;;
59159;SDS011;44941;45.058;20.076;2024-03-06T04:02:02;20.67;;;14.45;;
59159;SDS011;44941;45.058;20.076;2024-03-06T04:04:29;20.42;;;14.63;;
59159;SDS011;44941;45.058;20.076;2024-03-06T04:06:55;23.85;;;14.98;;
59159;SDS011;44941;45.058;20.076;2024-03-06T04:09:24;20.08;;;14.80;;
59159;SDS011;44941;45.058;20.076;2024-03-06T04:11:50;22.35;;;15.00;;
59159;SDS011;44941;45.058;20.076;2024-03-06T04:14:16;23.13;;;15.68;;
59159;SDS011;44941;45.058;20.076;2024-03-06T04:16:45;22.88;;;15.88;;
59159;SDS011;44941;45.058;20.076;2024-03-06T04:19:11;25.63;;;17.17;;
59159;SDS011;44941;45.058;20.076;2024-03-06T04:21:41;24.15;;;17.67;;
59159;SDS011;44941;45.058;20.076;2024-03-06T04:24:07;26.67;;;18.67;;
59159;SDS011;44941;45.058;20.076;2024-03-06T04:26:33;30.25;;;18.70;;
59159;SDS011;44941;45.058;20.076;2024-03-06T04:29:01;32.90;;;20.08;;
59159;SDS011;44941;45.058;20.076;2024-03-06T04:34:22;31.95;;;20.55;;
59159;SDS011;44941;45.058;20.076;2024-03-06T04:36:48;29.85;;;19.80;;
59159;SDS011;44941;45.058;20.076;2024-03-06T04:39:14;31.83;;;19.70;;
59159;SDS011;44941;45.058;20.076;2024-03-06T04:41:40;28.35;;;18.63;;
59159;SDS011;44941;45.058;20.076;2024-03-06T04:44:06;29.17;;;18.25;;
59159;SDS011;44941;45.058;20.076;2024-03-06T04:46:41;26.17;;;18.65;;
59159;SDS011;44941;45.058;20.076;2024-03-06T04:49:07;27.55;;;17.33;;
59159;SDS011;44941;45.058;20.076;2024-03-06T04:51:33;24.00;;;16.63;;
59159;SDS011;44941;45.058;20.076;2024-03-06T04:54:00;27.00;;;17.15;;
59159;SDS011;44941;45.058;20.076;2024-03-06T04:56:26;24.55;;;17.17;;
59159;SDS011;44941;45.058;20.076;2024-03-06T04:58:52;24.98;;;15.90;;
59159;SDS011;44941;45.058;20.076;2024-03-06T05:01:20;28.15;;;17.65;;
59159;SDS011;44941;45.058;20.076;2024-03-06T05:03:46;22.15;;;16.65;;
59159;SDS011;44941;45.058;20.076;2024-03-06T05:06:12;26.42;;;16.05;;
59159;SDS011;44941;45.058;20.076;2024-03-06T05:08:38;26.55;;;16.23;;
59159;SDS011;44941;45.058;20.076;2024-03-06T05:11:04;23.13;;;15.40;;
59159;SDS011;44941;45.058;20.076;2024-03-06T05:13:31;21.67;;;14.57;;
59159;SDS011;44941;45.058;20.076;2024-03-06T05:15:57;25.85;;;15.05;;
59159;SDS011;44941;45.058;20.076;2024-03-06T05:18:23;23.98;;;14.48;;
59159;SDS011;44941;45.058;20.076;2024-03-06T05:20:49;22.45;;;14.05;;
59159;SDS011;44941;45.058;20.076;2024-03-06T05:23:15;21.65;;;13.77;;
59159;SDS011;44941;45.058;20.076;2024-03-06T05:25:42;21.45;;;14.43;;
59159;SDS011;44941;45.058;20.076;2024-03-06T05:28:09;22.73;;;14.82;;
59159;SDS011;44941;45.058;20.076;2024-03-06T05:30:35;22.42;;;14.98;;
59159;SDS011;44941;45.058;20.076;2024-03-06T05:33:02;23.48;;;15.23;;
59159;SDS011;44941;45.058;20.076;2024-03-06T05:35:28;25.02;;;14.85;;
59159;SDS011;44941;45.058;20.076;2024-03-06T05:37:54;25.33;;;16.02;;
59159;SDS011;44941;45.058;20.076;2024-03-06T05:40:20;27.00;;;15.25;;
59159;SDS011;44941;45.058;20.076;2024-03-06T05:42:46;25.83;;;15.18;;
59159;SDS011;44941;45.058;20.076;2024-03-06T05:45:12;23.17;;;15.00;;
59159;SDS011;44941;45.058;20.076;2024-03-06T05:50:48;27.27;;;16.55;;
59159;SDS011;44941;45.058;20.076;2024-03-06T05:53:14;27.35;;;17.30;;
59159;SDS011;44941;45.058;20.076;2024-03-06T05:55:40;26.65;;;16.42;;
59159;SDS011;44941;45.058;20.076;2024-03-06T05:58:06;24.60;;;16.92;;
59159;SDS011;44941;45.058;20.076;2024-03-06T06:00:32;35.28;;;22.88;;
59159;SDS011;44941;45.058;20.076;2024-03-06T06:03:14;69.75;;;45.33;;
59159;SDS011;44941;45.058;20.076;2024-03-06T06:05:40;75.60;;;51.80;;
59159;SDS011;44941;45.058;20.076;2024-03-06T06:08:06;80.10;;;56.05;;
59159;SDS011;44941;45.058;20.076;2024-03-06T06:10:32;71.95;;;50.72;;
59159;SDS011;44941;45.058;20.076;2024-03-06T06:12:58;70.93;;;49.03;;
59159;SDS011;44941;45.058;20.076;2024-03-06T06:15:24;51.85;;;34.90;;
59159;SDS011;44941;45.058;20.076;2024-03-06T06:21:09;35.80;;;25.35;;
59159;SDS011;44941;45.058;20.076;2024-03-06T06:23:35;34.67;;;20.17;;
59159;SDS011;44941;45.058;20.076;2024-03-06T06:26:01;31.38;;;17.98;;
59159;SDS011;44941;45.058;20.076;2024-03-06T06:28:27;26.73;;;17.48;;
59159;SDS011;44941;45.058;20.076;2024-03-06T06:30:54;30.92;;;20.35;;
59159;SDS011;44941;45.058;20.076;2024-03-06T06:33:20;50.05;;;32.58;;
59159;SDS011;44941;45.058;20.076;2024-03-06T06:35:46;86.78;;;56.50;;
59159;SDS011;44941;45.058;20.076;2024-03-06T06:38:13;79.10;;;50.88;;
59159;SDS011;44941;45.058;20.076;2024-03-06T06:40:39;57.88;;;37.63;;
59159;SDS011;44941;45.058;20.076;2024-03-06T06:43:08;40.22;;;27.13;;
59159;SDS011;44941;45.058;20.076;2024-03-06T06:45:34;32.80;;;21.15;;
59159;SDS011;44941;45.058;20.076;2024-03-06T06:50:47;29.27;;;19.77;;
59159;SDS011;44941;45.058;20.076;2024-03-06T06:53:13;28.80;;;19.55;;
59159;SDS011;44941;45.058;20.076;2024-03-06T06:55:40;31.45;;;21.05;;
59159;SDS011;44941;45.058;20.076;2024-03-06T06:58:06;32.30;;;19.63;;
59159;SDS011;44941;45.058;20.076;2024-03-06T07:00:33;28.90;;;19.45;;
59159;SDS011;44941;45.058;20.076;2024-03-06T07:03:08;33.03;;;18.63;;
59159;SDS011;44941;45.058;20.076;2024-03-06T07:05:35;37.28;;;19.17;;
59159;SDS011;44941;45.058;20.076;2024-03-06T07:08:01;32.33;;;18.40;;
59159;SDS011;44941;45.058;20.076;2024-03-06T07:10:27;31.30;;;21.08;;
59159;SDS011;44941;45.058;20.076;2024-03-06T07:12:53;31.92;;;19.27;;
59159;SDS011;44941;45.058;20.076;2024-03-06T07:15:19;29.83;;;20.77;;
59159;SDS011;44941;45.058;20.076;2024-03-06T07:20:43;33.97;;;21.80;;
59159;SDS011;44941;45.058;20.076;2024-03-06T07:23:09;31.42;;;21.25;;
59159;SDS011;44941;45.058;20.076;2024-03-06T07:25:35;34.53;;;21.90;;
59159;SDS011;44941;45.058;20.076;2024-03-06T07:28:01;33.88;;;22.73;;
59159;SDS011;44941;45.058;20.076;2024-03-06T07:30:29;30.77;;;22.20;;
59159;SDS011;44941;45.058;20.076;2024-03-06T07:32:55;34.15;;;23.20;;
59159;SDS011;44941;45.058;20.076;2024-03-06T07:35:22;32.23;;;22.40;;
59159;SDS011;44941;45.058;20.076;2024-03-06T07:37:48;35.85;;;24.23;;
59159;SDS011;44941;45.058;20.076;2024-03-06T07:40:14;34.60;;;24.73;;
59159;SDS011;44941;45.058;20.076;2024-03-06T07:42:40;40.95;;;26.33;;
59159;SDS011;44941;45.058;20.076;2024-03-06T07:45:07;44.45;;;27.25;;
59159;SDS011;44941;45.058;20.076;2024-03-06T07:47:46;40.92;;;26.95;;
59159;SDS011;44941;45.058;20.076;2024-03-06T07:50:13;44.20;;;27.55;;
59159;SDS011;44941;45.058;20.076;2024-03-06T07:52:44;41.42;;;27.38;;
59159;SDS011;44941;45.058;20.076;2024-03-06T07:55:10;42.25;;;29.38;;
59159;SDS011;44941;45.058;20.076;2024-03-06T07:57:36;41.30;;;29.05;;
59159;SDS011;44941;45.058;20.076;2024-03-06T08:00:03;42.42;;;29.13;;
59159;SDS011;44941;45.058;20.076;2024-03-06T08:02:40;43.55;;;28.23;;
59159;SDS011;44941;45.058;20.076;2024-03-06T08:05:11;39.80;;;27.40;;
59159;SDS011;44941;45.058;20.076;2024-03-06T08:07:40;36.72;;;25.60;;
59159;SDS011;44941;45.058;20.076;2024-03-06T08:10:08;38.33;;;26.08;;
59159;SDS011;44941;45.058;20.076;2024-03-06T08:12:34;39.97;;;27.25;;
59159;SDS011;44941;45.058;20.076;2024-03-06T08:15:00;37.88;;;24.23;;
59159;SDS011;44941;45.058;20.076;2024-03-06T08:17:28;38.50;;;25.92;;
59159;SDS011;44941;45.058;20.076;2024-03-06T08:19:54;36.45;;;25.00;;
59159;SDS011;44941;45.058;20.076;2024-03-06T08:22:20;35.85;;;24.85;;
59159;SDS011;44941;45.058;20.076;2024-03-06T08:24:46;33.83;;;23.73;;
59159;SDS011;44941;45.058;20.076;2024-03-06T08:27:13;34.58;;;24.35;;
59159;SDS011;44941;45.058;20.076;2024-03-06T08:29:39;43.95;;;28.33;;
59159;SDS011;44941;45.058;20.076;2024-03-06T08:32:05;42.83;;;26.98;;
59159;SDS011;44941;45.058;20.076;2024-03-06T08:34:31;37.25;;;25.05;;
59159;SDS011;44941;45.058;20.076;2024-03-06T08:36:58;38.30;;;25.25;;
59159;SDS011;44941;45.058;20.076;2024-03-06T08:39:24;41.47;;;25.48;;
59159;SDS011;44941;45.058;20.076;2024-03-06T08:41:51;39.30;;;24.58;;
59159;SDS011;44941;45.058;20.076;2024-03-06T08:44:17;35.38;;;23.52;;
59159;SDS011;44941;45.058;20.076;2024-03-06T08:46:45;34.60;;;23.92;;
59159;SDS011;44941;45.058;20.076;2024-03-06T08:49:13;40.00;;;25.00;;
59159;SDS011;44941;45.058;20.076;2024-03-06T08:51:39;34.38;;;21.88;;
59159;SDS011;44941;45.058;20.076;2024-03-06T08:54:05;37.35;;;22.73;;
59159;SDS011;44941;45.058;20.076;2024-03-06T08:56:32;36.75;;;23.23;;
59159;SDS011;44941;45.058;20.076;2024-03-06T08:58:59;37.72;;;23.67;;
59159;SDS011;44941;45.058;20.076;2024-03-06T09:01:25;35.50;;;21.52;;
59159;SDS011;44941;45.058;20.076;2024-03-06T09:06:45;35.20;;;19.75;;
59159;SDS011;44941;45.058;20.076;2024-03-06T09:09:11;33.47;;;20.25;;
59159;SDS011;44941;45.058;20.076;2024-03-06T09:11:40;28.67;;;18.65;;
59159;SDS011;44941;45.058;20.076;2024-03-06T09:14:07;31.92;;;19.52;;
59159;SDS011;44941;45.058;20.076;2024-03-06T09:16:34;26.43;;;18.40;;
59159;SDS011;44941;45.058;20.076;2024-03-06T09:21:54;30.10;;;17.55;;
59159;SDS011;44941;45.058;20.076;2024-03-06T09:24:21;29.33;;;17.13;;
59159;SDS011;44941;45.058;20.076;2024-03-06T09:26:51;26.42;;;18.13;;
59159;SDS011;44941;45.058;20.076;2024-03-06T09:29:17;28.42;;;18.30;;
59159;SDS011;44941;45.058;20.076;2024-03-06T09:31:44;24.83;;;18.02;;
59159;SDS011;44941;45.058;20.076;2024-03-06T09:34:13;28.60;;;18.80;;
59159;SDS011;44941;45.058;20.076;2024-03-06T09:36:45;26.85;;;18.23;;
59159;SDS011;44941;45.058;20.076;2024-03-06T09:39:15;28.88;;;18.23;;
59159;SDS011;44941;45.058;20.076;2024-03-06T09:41:44;28.05;;;17.33;;
59159;SDS011;44941;45.058;20.076;2024-03-06T09:44:11;25.80;;;16.75;;
59159;SDS011;44941;45.058;20.076;2024-03-06T09:46:38;24.50;;;16.65;;
59159;SDS011;44941;45.058;20.076;2024-03-06T09:49:06;25.08;;;17.63;;
59159;SDS011;44941;45.058;20.076;2024-03-06T09:51:33;28.73;;;16.95;;
59159;SDS011;44941;45.058;20.076;2024-03-06T09:53:59;26.75;;;17.10;;
59159;SDS011;44941;45.058;20.076;2024-03-06T09:56:25;25.15;;;16.45;;
59159;SDS011;44941;45.058;20.076;2024-03-06T09:58:51;29.98;;;17.23;;
59159;SDS011;44941;45.058;20.076;2024-03-06T10:01:19;25.05;;;16.27;;
59159;SDS011;44941;45.058;20.076;2024-03-06T10:03:46;27.95;;;16.52;;
59159;SDS011;44941;45.058;20.076;2024-03-06T10:06:12;25.67;;;17.23;;
59159;SDS011;44941;45.058;20.076;2024-03-06T10:08:42;26.65;;;16.38;;
59159;SDS011;44941;45.058;20.076;2024-03-06T10:11:11;24.20;;;16.23;;
59159;SDS011;44941;45.058;20.076;2024-03-06T10:13:40;24.23;;;16.20;;
59159;SDS011;44941;45.058;20.076;2024-03-06T10:16:06;26.63;;;16.80;;
59159;SDS011;44941;45.058;20.076;2024-03-06T10:18:35;29.70;;;19.50;;
59159;SDS011;44941;45.058;20.076;2024-03-06T10:24:07;36.05;;;21.20;;
59159;SDS011;44941;45.058;20.076;2024-03-06T10:26:33;34.17;;;19.90;;
59159;SDS011;44941;45.058;20.076;2024-03-06T10:28:59;34.20;;;20.70;;
59159;SDS011;44941;45.058;20.076;2024-03-06T10:31:27;29.20;;;19.63;;
59159;SDS011;44941;45.058;20.076;2024-03-06T10:33:53;32.03;;;20.95;;
59159;SDS011;44941;45.058;20.076;2024-03-06T10:36:19;29.17;;;19.77;;
59159;SDS011;44941;45.058;20.076;2024-03-06T10:38:45;29.02;;;20.75;;
59159;SDS011;44941;45.058;20.076;2024-03-06T10:41:14;29.45;;;19.67;;
59159;SDS011;44941;45.058;20.076;2024-03-06T10:43:41;28.67;;;19.50;;
59159;SDS011;44941;45.058;20.076;2024-03-06T10:48:34;38.33;;;21.20;;
59159;SDS011;44941;45.058;20.076;2024-03-06T10:51:01;31.23;;;20.43;;
59159;SDS011;44941;45.058;20.076;2024-03-06T10:53:28;30.27;;;19.85;;
59159;SDS011;44941;45.058;20.076;2024-03-06T10:55:55;32.20;;;21.20;;
59159;SDS011;44941;45.058;20.076;2024-03-06T10:58:22;30.03;;;22.00;;
59159;SDS011;44941;45.058;20.076;2024-03-06T11:00:49;31.50;;;22.38;;
59159;SDS011;44941;45.058;20.076;2024-03-06T11:03:16;33.53;;;23.90;;
59159;SDS011;44941;45.058;20.076;2024-03-06T11:05:43;31.92;;;23.02;;
59159;SDS011;44941;45.058;20.076;2024-03-06T11:08:12;35.00;;;23.33;;
59159;SDS011;44941;45.058;20.076;2024-03-06T11:10:39;38.63;;;22.98;;
59159;SDS011;44941;45.058;20.076;2024-03-06T11:15:38;32.58;;;23.23;;
59159;SDS011;44941;45.058;20.076;2024-03-06T11:20:48;34.13;;;24.15;;
59159;SDS011;44941;45.058;20.076;2024-03-06T11:23:14;37.47;;;24.90;;
59159;SDS011;44941;45.058;20.076;2024-03-06T11:28:22;33.90;;;25.20;;
59159;SDS011;44941;45.058;20.076;2024-03-06T11:30:55;33.55;;;24.30;;
59159;SDS011;44941;45.058;20.076;2024-03-06T11:33:23;33.33;;;23.75;;
59159;SDS011;44941;45.058;20.076;2024-03-06T11:38:37;34.00;;;22.67;;
59159;SDS011;44941;45.058;20.076;2024-03-06T11:41:04;30.75;;;21.58;;
59159;SDS011;44941;45.058;20.076;2024-03-06T11:43:41;28.27;;;20.92;;
59159;SDS011;44941;45.058;20.076;2024-03-06T11:46:10;32.78;;;21.25;;
59159;SDS011;44941;45.058;20.076;2024-03-06T11:48:37;31.98;;;21.90;;
59159;SDS011;44941;45.058;20.076;2024-03-06T11:51:04;35.03;;;22.35;;
59159;SDS011;44941;45.058;20.076;2024-03-06T11:53:30;30.15;;;21.60;;
59159;SDS011;44941;45.058;20.076;2024-03-06T11:55:58;31.60;;;21.75;;
59159;SDS011;44941;45.058;20.076;2024-03-06T11:58:24;31.15;;;23.63;;
59159;SDS011;44941;45.058;20.076;2024-03-06T12:00:51;29.70;;;18.27;;
59159;SDS011;44941;45.058;20.076;2024-03-06T12:03:19;28.70;;;18.00;;
59159;SDS011;44941;45.058;20.076;2024-03-06T12:05:45;35.70;;;20.08;;
59159;SDS011;44941;45.058;20.076;2024-03-06T12:08:11;31.17;;;22.02;;
59159;SDS011;44941;45.058;20.076;2024-03-06T12:10:37;30.17;;;20.98;;
59159;SDS011;44941;45.058;20.076;2024-03-06T12:13:07;34.47;;;23.08;;
59159;SDS011;44941;45.058;20.076;2024-03-06T12:15:34;31.40;;;21.35;;
59159;SDS011;44941;45.058;20.076;2024-03-06T12:18:00;29.92;;;20.63;;
59159;SDS011;44941;45.058;20.076;2024-03-06T12:20:27;29.95;;;21.10;;
59159;SDS011;44941;45.058;20.076;2024-03-06T12:22:53;32.78;;;21.65;;
59159;SDS011;44941;45.058;20.076;2024-03-06T12:25:23;29.77;;;21.60;;
59159;SDS011;44941;45.058;20.076;2024-03-06T12:27:50;32.47;;;20.60;;
59159;SDS011;44941;45.058;20.076;2024-03-06T12:30:17;28.55;;;20.48;;
59159;SDS011;44941;45.058;20.076;2024-03-06T12:32:59;30.13;;;21.48;;
59159;SDS011;44941;45.058;20.076;2024-03-06T12:35:31;27.90;;;19.10;;
59159;SDS011;44941;45.058;20.076;2024-03-06T12:37:58;27.73;;;19.70;;
59159;SDS011;44941;45.058;20.076;2024-03-06T12:40:24;31.02;;;20.20;;
59159;SDS011;44941;45.058;20.076;2024-03-06T12:42:50;27.88;;;19.98;;
59159;SDS011;44941;45.058;20.076;2024-03-06T12:45:18;31.23;;;19.95;;
59159;SDS011;44941;45.058;20.076;2024-03-06T12:47:44;29.52;;;18.20;;
59159;SDS011;44941;45.058;20.076;2024-03-06T12:50:13;25.05;;;14.45;;
59159;SDS011;44941;45.058;20.076;2024-03-06T12:52:39;25.02;;;15.75;;
59159;SDS011;44941;45.058;20.076;2024-03-06T12:55:06;24.85;;;15.13;;
59159;SDS011;44941;45.058;20.076;2024-03-06T12:57:32;24.50;;;14.65;;
59159;SDS011;44941;45.058;20.076;2024-03-06T12:59:58;20.20;;;13.35;;
59159;SDS011;44941;45.058;20.076;2024-03-06T13:02:25;20.70;;;13.15;;
59159;SDS011;44941;45.058;20.076;2024-03-06T13:04:51;16.52;;;10.50;;
59159;SDS011;44941;45.058;20.076;2024-03-06T13:07:18;22.80;;;10.77;;
59159;SDS011;44941;45.058;20.076;2024-03-06T13:09:44;13.80;;;6.18;;
59159;SDS011;44941;45.058;20.076;2024-03-06T13:12:10;12.32;;;5.82;;
59159;SDS011;44941;45.058;20.076;2024-03-06T13:14:37;11.00;;;4.30;;
59159;SDS011;44941;45.058;20.076;2024-03-06T13:17:03;9.85;;;5.18;;
59159;SDS011;44941;45.058;20.076;2024-03-06T13:21:57;21.20;;;10.98;;
59159;SDS011;44941;45.058;20.076;2024-03-06T13:24:23;22.38;;;13.13;;
59159;SDS011;44941;45.058;20.076;2024-03-06T13:26:49;20.08;;;14.35;;
59159;SDS011;44941;45.058;20.076;2024-03-06T13:29:15;22.77;;;14.90;;
59159;SDS011;44941;45.058;20.076;2024-03-06T13:31:42;24.73;;;16.75;;
59159;SDS011;44941;45.058;20.076;2024-03-06T13:34:08;27.15;;;17.88;;
59159;SDS011;44941;45.058;20.076;2024-03-06T13:36:34;25.15;;;17.33;;
59159;SDS011;44941;45.058;20.076;2024-03-06T13:39:00;27.20;;;18.70;;
59159;SDS011;44941;45.058;20.076;2024-03-06T13:41:26;26.40;;;16.77;;
59159;SDS011;44941;45.058;20.076;2024-03-06T13:43:52;36.08;;;19.85;;
59159;SDS011;44941;45.058;20.076;2024-03-06T13:46:18;28.73;;;17.70;;
59159;SDS011;44941;45.058;20.076;2024-03-06T13:48:47;24.05;;;18.02;;
59159;SDS011;44941;45.058;20.076;2024-03-06T13:51:13;26.80;;;17.20;;
59159;SDS011;44941;45.058;20.076;2024-03-06T13:53:39;26.98;;;17.23;;
59159;SDS011;44941;45.058;20.076;2024-03-06T13:56:06;21.63;;;15.63;;
59159;SDS011;44941;45.058;20.076;2024-03-06T13:58:33;21.08;;;14.73;;
59159;SDS011;44941;45.058;20.076;2024-03-06T14:00:59;23.83;;;16.98;;
59159;SDS011;44941;45.058;20.076;2024-03-06T14:03:25;25.75;;;16.77;;
59159;SDS011;44941;45.058;20.076;2024-03-06T14:05:51;28.60;;;16.48;;
59159;SDS011;44941;45.058;20.076;2024-03-06T14:08:17;27.08;;;16.98;;
59159;SDS011;44941;45.058;20.076;2024-03-06T14:10:43;22.08;;;16.73;;
59159;SDS011;44941;45.058;20.076;2024-03-06T14:13:10;29.17;;;20.17;;
59159;SDS011;44941;45.058;20.076;2024-03-06T14:15:36;24.10;;;16.75;;
59159;SDS011;44941;45.058;20.076;2024-03-06T14:18:03;24.38;;;15.80;;
59159;SDS011;44941;45.058;20.076;2024-03-06T14:20:30;24.05;;;16.17;;
59159;SDS011;44941;45.058;20.076;2024-03-06T14:22:56;24.48;;;16.98;;
59159;SDS011;44941;45.058;20.076;2024-03-06T14:25:22;25.02;;;17.17;;
59159;SDS011;44941;45.058;20.076;2024-03-06T14:27:49;23.83;;;17.77;;
59159;SDS011;44941;45.058;20.076;2024-03-06T14:30:16;23.95;;;16.63;;
59159;SDS011;44941;45.058;20.076;2024-03-06T14:32:44;26.40;;;17.58;;
59159;SDS011;44941;45.058;20.076;2024-03-06T14:35:10;26.25;;;16.48;;
59159;SDS011;44941;45.058;20.076;2024-03-06T14:37:37;28.33;;;16.85;;
59159;SDS011;44941;45.058;20.076;2024-03-06T14:40:04;25.48;;;17.70;;
59159;SDS011;44941;45.058;20.076;2024-03-06T14:42:33;22.70;;;16.83;;
59159;SDS011;44941;45.058;20.076;2024-03-06T14:44:59;22.55;;;15.75;;
59159;SDS011;44941;45.058;20.076;2024-03-06T14:47:26;22.05;;;16.05;;
59159;SDS011;44941;45.058;20.076;2024-03-06T14:49:53;23.80;;;16.73;;
59159;SDS011;44941;45.058;20.076;2024-03-06T14:52:19;19.30;;;14.63;;
59159;SDS011;44941;45.058;20.076;2024-03-06T14:54:45;26.00;;;15.95;;
59159;SDS011;44941;45.058;20.076;2024-03-06T14:57:12;28.48;;;22.20;;